sensor_id;sensor_type;location;lat;lon;timestamp;pressure;altitude;pressure_sealevel;temperature;humidity
77165;BME280;66140;50.280;18.660;2023-04-08T05:03:21;99396.66;;;1.52;96.31
77165;BME280;66140;50.280;18.660;2023-04-08T05:05:53;99401.00;;;1.53;96.97
77165;BME280;66140;50.280;18.660;2023-04-08T05:08:19;99394.78;;;1.58;95.11
77165;BME280;66140;50.280;18.660;2023-04-08T05:10:45;99400.00;;;1.58;94.83
77165;BME280;66140;50.280;18.660;2023-04-08T05:13:10;99400.81;;;1.60;96.61
77165;BME280;66140;50.280;18.660;2023-04-08T05:15:36;99392.94;;;1.62;94.97
77165;BME280;66140;50.280;18.660;2023-04-08T05:18:01;99412.06;;;1.64;94.63
77165;BME280;66140;50.280;18.660;2023-04-08T05:20:26;99418.94;;;1.68;94.70
77165;BME280;66140;50.280;18.660;2023-04-08T05:22:52;99413.63;;;1.73;93.95
77165;BME280;66140;50.280;18.660;2023-04-08T05:25:17;99414.41;;;1.76;94.18
77165;BME280;66140;50.280;18.660;2023-04-08T05:27:43;99417.75;;;1.81;93.45
77165;BME280;66140;50.280;18.660;2023-04-08T05:30:09;99421.25;;;1.82;93.87
77165;BME280;66140;50.280;18.660;2023-04-08T05:32:35;99419.47;;;1.84;93.82
77165;BME280;66140;50.280;18.660;2023-04-08T05:35:02;99421.97;;;1.88;93.67
77165;BME280;66140;50.280;18.660;2023-04-08T05:37:28;99416.72;;;1.88;93.07
77165;BME280;66140;50.280;18.660;2023-04-08T05:39:53;99422.03;;;1.85;92.87
77165;BME280;66140;50.280;18.660;2023-04-08T05:42:19;99427.13;;;1.91;93.04
77165;BME280;66140;50.280;18.660;2023-04-08T05:44:44;99430.78;;;1.84;92.71
77165;BME280;66140;50.280;18.660;2023-04-08T05:47:12;99430.63;;;1.90;92.73
77165;BME280;66140;50.280;18.660;2023-04-08T05:49:39;99435.72;;;1.96;92.33
77165;BME280;66140;50.280;18.660;2023-04-08T05:52:05;99442.59;;;2.00;92.62
77165;BME280;66140;50.280;18.660;2023-04-08T05:54:31;99437.31;;;2.04;92.58
77165;BME280;66140;50.280;18.660;2023-04-08T05:57:07;99433.66;;;2.11;91.92
77165;BME280;66140;50.280;18.660;2023-04-08T05:59:40;99444.75;;;2.19;92.93
77165;BME280;66140;50.280;18.660;2023-04-08T06:02:06;99440.41;;;2.18;91.71
77165;BME280;66140;50.280;18.660;2023-04-08T06:04:31;99455.94;;;2.25;91.39
77165;BME280;66140;50.280;18.660;2023-04-08T06:06:56;99453.13;;;2.33;92.03
77165;BME280;66140;50.280;18.660;2023-04-08T06:09:26;99455.59;;;2.39;90.51
77165;BME280;66140;50.280;18.660;2023-04-08T06:11:51;99456.47;;;2.39;91.54
77165;BME280;66140;50.280;18.660;2023-04-08T06:14:17;99463.22;;;2.50;92.09
77165;BME280;66140;50.280;18.660;2023-04-08T06:16:42;99466.38;;;2.62;91.55
77165;BME280;66140;50.280;18.660;2023-04-08T06:19:08;99444.31;;;2.69;89.55
77165;BME280;66140;50.280;18.660;2023-04-08T06:21:33;99454.63;;;2.75;88.75
77165;BME280;66140;50.280;18.660;2023-04-08T06:23:59;99464.34;;;2.72;89.14
77165;BME280;66140;50.280;18.660;2023-04-08T06:26:24;99466.22;;;2.68;89.99
77165;BME280;66140;50.280;18.660;2023-04-08T06:28:50;99459.34;;;2.63;88.99
77165;BME280;66140;50.280;18.660;2023-04-08T06:31:16;99458.22;;;2.73;88.69
77165;BME280;66140;50.280;18.660;2023-04-08T06:33:41;99466.84;;;2.76;87.87
77165;BME280;66140;50.280;18.660;2023-04-08T06:36:07;99473.06;;;2.72;88.59
77165;BME280;66140;50.280;18.660;2023-04-08T06:38:33;99460.50;;;2.85;87.90
77165;BME280;66140;50.280;18.660;2023-04-08T06:41:06;99481.84;;;3.35;86.52
77165;BME280;66140;50.280;18.660;2023-04-08T06:43:32;99477.28;;;3.71;84.25
77165;BME280;66140;50.280;18.660;2023-04-08T06:45:57;99475.25;;;4.08;83.33
77165;BME280;66140;50.280;18.660;2023-04-08T06:48:23;99479.50;;;4.65;81.28
77165;BME280;66140;50.280;18.660;2023-04-08T06:50:57;99466.25;;;5.17;79.30
77165;BME280;66140;50.280;18.660;2023-04-08T06:53:23;99477.88;;;5.58;76.94
77165;BME280;66140;50.280;18.660;2023-04-08T06:55:49;99484.38;;;5.72;76.35
77165;BME280;66140;50.280;18.660;2023-04-08T06:58:14;99479.88;;;6.42;75.58
77165;BME280;66140;50.280;18.660;2023-04-08T07:00:41;99471.88;;;6.85;71.21
77165;BME280;66140;50.280;18.660;2023-04-08T07:03:06;99471.22;;;7.01;72.97
77165;BME280;66140;50.280;18.660;2023-04-08T07:05:31;99470.34;;;7.59;72.20
77165;BME280;66140;50.280;18.660;2023-04-08T07:07:57;99469.63;;;8.12;70.89
77165;BME280;66140;50.280;18.660;2023-04-08T07:10:22;99476.38;;;8.36;65.02
77165;BME280;66140;50.280;18.660;2023-04-08T07:12:47;99475.47;;;8.19;66.86
77165;BME280;66140;50.280;18.660;2023-04-08T07:15:13;99481.25;;;8.97;66.65
77165;BME280;66140;50.280;18.660;2023-04-08T07:17:38;99482.13;;;9.15;65.63
77165;BME280;66140;50.280;18.660;2023-04-08T07:20:05;99479.50;;;9.31;63.30
77165;BME280;66140;50.280;18.660;2023-04-08T07:22:33;99478.63;;;9.47;63.53
77165;BME280;66140;50.280;18.660;2023-04-08T07:24:58;99477.25;;;9.56;63.25
77165;BME280;66140;50.280;18.660;2023-04-08T07:27:24;99482.41;;;9.59;62.88
77165;BME280;66140;50.280;18.660;2023-04-08T07:29:52;99481.25;;;8.97;62.01
77165;BME280;66140;50.280;18.660;2023-04-08T07:32:19;99497.28;;;8.77;63.98
77165;BME280;66140;50.280;18.660;2023-04-08T07:34:47;99489.66;;;8.88;62.28
77165;BME280;66140;50.280;18.660;2023-04-08T07:37:15;99490.44;;;8.90;64.84
77165;BME280;66140;50.280;18.660;2023-04-08T07:39:43;99496.56;;;8.56;61.78
77165;BME280;66140;50.280;18.660;2023-04-08T07:42:08;99502.53;;;8.42;61.44
77165;BME280;66140;50.280;18.660;2023-04-08T07:44:33;99499.28;;;8.55;65.14
77165;BME280;66140;50.280;18.660;2023-04-08T07:46:59;99499.38;;;9.05;62.56
77165;BME280;66140;50.280;18.660;2023-04-08T07:49:35;99500.59;;;8.27;58.85
77165;BME280;66140;50.280;18.660;2023-04-08T07:52:00;99507.34;;;6.99;64.20
77165;BME280;66140;50.280;18.660;2023-04-08T07:54:26;99519.50;;;6.82;65.53
77165;BME280;66140;50.280;18.660;2023-04-08T07:56:51;99520.69;;;6.96;64.81
77165;BME280;66140;50.280;18.660;2023-04-08T07:59:16;99524.00;;;7.21;66.96
77165;BME280;66140;50.280;18.660;2023-04-08T08:01:42;99523.88;;;7.04;64.13
77165;BME280;66140;50.280;18.660;2023-04-08T08:04:07;99515.69;;;7.10;64.89
77165;BME280;66140;50.280;18.660;2023-04-08T08:06:33;99523.53;;;6.91;64.64
77165;BME280;66140;50.280;18.660;2023-04-08T08:08:59;99526.22;;;6.90;66.03
77165;BME280;66140;50.280;18.660;2023-04-08T08:11:25;99534.53;;;7.41;63.61
77165;BME280;66140;50.280;18.660;2023-04-08T08:13:52;99533.19;;;7.51;63.50
77165;BME280;66140;50.280;18.660;2023-04-08T08:16:18;99525.47;;;6.86;64.37
77165;BME280;66140;50.280;18.660;2023-04-08T08:18:44;99526.47;;;7.24;65.02
77165;BME280;66140;50.280;18.660;2023-04-08T08:21:09;99527.25;;;7.46;63.21
77165;BME280;66140;50.280;18.660;2023-04-08T08:23:35;99528.44;;;7.59;65.17
77165;BME280;66140;50.280;18.660;2023-04-08T08:26:06;99529.00;;;7.47;62.24
77165;BME280;66140;50.280;18.660;2023-04-08T08:28:32;99526.22;;;7.30;63.06
77165;BME280;66140;50.280;18.660;2023-04-08T08:30:58;99531.38;;;7.33;62.26
77165;BME280;66140;50.280;18.660;2023-04-08T08:33:24;99529.25;;;7.41;61.58
77165;BME280;66140;50.280;18.660;2023-04-08T08:35:50;99528.00;;;7.69;63.76
77165;BME280;66140;50.280;18.660;2023-04-08T08:38:15;99534.59;;;7.79;61.05
77165;BME280;66140;50.280;18.660;2023-04-08T08:40:42;99523.97;;;7.80;61.56
77165;BME280;66140;50.280;18.660;2023-04-08T08:43:08;99532.44;;;7.29;61.70
77165;BME280;66140;50.280;18.660;2023-04-08T08:45:38;99536.75;;;7.30;63.29
77165;BME280;66140;50.280;18.660;2023-04-08T08:48:03;99537.19;;;7.21;63.79
77165;BME280;66140;50.280;18.660;2023-04-08T08:50:29;99546.03;;;7.79;65.63
77165;BME280;66140;50.280;18.660;2023-04-08T08:52:54;99534.03;;;8.28;65.03
77165;BME280;66140;50.280;18.660;2023-04-08T08:55:20;99531.66;;;8.60;62.23
77165;BME280;66140;50.280;18.660;2023-04-08T08:57:49;99540.81;;;8.89;59.98
77165;BME280;66140;50.280;18.660;2023-04-08T09:00:15;99550.50;;;8.35;59.93
77165;BME280;66140;50.280;18.660;2023-04-08T09:02:41;99536.31;;;8.17;61.10
77165;BME280;66140;50.280;18.660;2023-04-08T09:05:06;99553.72;;;7.84;62.78
77165;BME280;66140;50.280;18.660;2023-04-08T09:07:35;99547.63;;;7.63;62.17
77165;BME280;66140;50.280;18.660;2023-04-08T09:10:01;99556.16;;;7.88;61.70
77165;BME280;66140;50.280;18.660;2023-04-08T09:12:27;99554.72;;;7.81;60.77
77165;BME280;66140;50.280;18.660;2023-04-08T09:15:22;99554.19;;;7.93;61.68
77165;BME280;66140;50.280;18.660;2023-04-08T09:17:47;99557.63;;;8.33;63.06
77165;BME280;66140;50.280;18.660;2023-04-08T09:20:12;99565.34;;;8.37;59.72
77165;BME280;66140;50.280;18.660;2023-04-08T09:22:58;99567.53;;;8.09;61.45
77165;BME280;66140;50.280;18.660;2023-04-08T09:25:28;99572.19;;;8.04;61.16
77165;BME280;66140;50.280;18.660;2023-04-08T09:27:54;99571.03;;;7.91;62.39
77165;BME280;66140;50.280;18.660;2023-04-08T09:30:26;99570.75;;;7.97;60.48
77165;BME280;66140;50.280;18.660;2023-04-08T09:32:52;99574.75;;;8.24;61.97
77165;BME280;66140;50.280;18.660;2023-04-08T09:35:19;99572.75;;;8.29;60.43
77165;BME280;66140;50.280;18.660;2023-04-08T09:37:45;99579.28;;;7.83;61.47
77165;BME280;66140;50.280;18.660;2023-04-08T09:40:11;99572.47;;;7.39;62.03
77165;BME280;66140;50.280;18.660;2023-04-08T09:42:39;99581.53;;;7.53;63.91
77165;BME280;66140;50.280;18.660;2023-04-08T09:45:08;99581.34;;;7.77;62.08
77165;BME280;66140;50.280;18.660;2023-04-08T09:47:41;99570.66;;;7.80;62.41
77165;BME280;66140;50.280;18.660;2023-04-08T09:50:08;99574.88;;;7.84;62.34
77165;BME280;66140;50.280;18.660;2023-04-08T09:52:57;99570.97;;;7.92;63.44
77165;BME280;66140;50.280;18.660;2023-04-08T09:55:26;99576.94;;;7.96;62.79
77165;BME280;66140;50.280;18.660;2023-04-08T09:57:58;99585.44;;;7.84;63.08
77165;BME280;66140;50.280;18.660;2023-04-08T10:00:29;99577.75;;;7.98;63.22
77165;BME280;66140;50.280;18.660;2023-04-08T10:03:09;99579.25;;;8.03;64.54
77165;BME280;66140;50.280;18.660;2023-04-08T10:05:36;99574.66;;;8.07;63.34
77165;BME280;66140;50.280;18.660;2023-04-08T10:08:04;99577.19;;;8.10;62.83
77165;BME280;66140;50.280;18.660;2023-04-08T10:10:30;99574.75;;;8.05;62.30
77165;BME280;66140;50.280;18.660;2023-04-08T10:12:56;99576.78;;;8.19;62.22
77165;BME280;66140;50.280;18.660;2023-04-08T10:15:32;99571.97;;;8.27;61.69
77165;BME280;66140;50.280;18.660;2023-04-08T10:25:33;99585.41;;;8.04;62.12
77165;BME280;66140;50.280;18.660;2023-04-08T10:28:00;99577.78;;;8.35;61.51
77165;BME280;66140;50.280;18.660;2023-04-08T10:32:56;99573.06;;;8.78;64.52
77165;BME280;66140;50.280;18.660;2023-04-08T10:35:29;99569.38;;;9.16;61.33
77165;BME280;66140;50.280;18.660;2023-04-08T10:37:56;99581.06;;;9.12;60.26
77165;BME280;66140;50.280;18.660;2023-04-08T10:40:22;99573.34;;;9.08;58.84
77165;BME280;66140;50.280;18.660;2023-04-08T10:42:56;99577.72;;;9.09;59.44
77165;BME280;66140;50.280;18.660;2023-04-08T10:45:21;99583.22;;;9.04;58.73
77165;BME280;66140;50.280;18.660;2023-04-08T10:47:47;99581.09;;;8.76;59.92
77165;BME280;66140;50.280;18.660;2023-04-08T10:50:14;99577.28;;;8.82;59.86
77165;BME280;66140;50.280;18.660;2023-04-08T10:52:50;99565.19;;;8.95;59.60
77165;BME280;66140;50.280;18.660;2023-04-08T10:55:24;99564.69;;;9.04;58.28
77165;BME280;66140;50.280;18.660;2023-04-08T10:57:50;99560.44;;;9.19;58.51
77165;BME280;66140;50.280;18.660;2023-04-08T11:00:36;99564.88;;;9.18;57.81
77165;BME280;66140;50.280;18.660;2023-04-08T11:03:05;99570.78;;;9.41;58.84
77165;BME280;66140;50.280;18.660;2023-04-08T11:05:31;99557.81;;;9.69;58.41
77165;BME280;66140;50.280;18.660;2023-04-08T11:07:57;99569.47;;;9.82;58.38
77165;BME280;66140;50.280;18.660;2023-04-08T11:10:24;99570.91;;;9.72;56.25
77165;BME280;66140;50.280;18.660;2023-04-08T11:12:49;99562.00;;;9.73;56.44
77165;BME280;66140;50.280;18.660;2023-04-08T11:15:16;99569.19;;;9.71;56.39
77165;BME280;66140;50.280;18.660;2023-04-08T11:17:42;99567.75;;;9.81;56.02
77165;BME280;66140;50.280;18.660;2023-04-08T11:20:08;99565.81;;;9.85;56.02
77165;BME280;66140;50.280;18.660;2023-04-08T11:22:34;99570.38;;;9.65;56.45
77165;BME280;66140;50.280;18.660;2023-04-08T11:25:01;99578.06;;;9.70;55.66
77165;BME280;66140;50.280;18.660;2023-04-08T11:27:26;99565.59;;;9.55;55.75
77165;BME280;66140;50.280;18.660;2023-04-08T11:29:54;99568.56;;;9.66;55.57
77165;BME280;66140;50.280;18.660;2023-04-08T11:32:20;99563.38;;;9.80;53.52
77165;BME280;66140;50.280;18.660;2023-04-08T11:34:47;99568.50;;;10.16;54.95
77165;BME280;66140;50.280;18.660;2023-04-08T11:37:13;99559.53;;;10.19;53.46
77165;BME280;66140;50.280;18.660;2023-04-08T11:39:45;99570.97;;;10.03;55.28
77165;BME280;66140;50.280;18.660;2023-04-08T11:44:51;99573.84;;;9.83;55.70
77165;BME280;66140;50.280;18.660;2023-04-08T11:47:17;99568.06;;;9.75;56.24
77165;BME280;66140;50.280;18.660;2023-04-08T11:49:44;99575.88;;;9.78;55.20
77165;BME280;66140;50.280;18.660;2023-04-08T11:52:10;99562.03;;;9.56;53.33
77165;BME280;66140;50.280;18.660;2023-04-08T11:54:40;99569.13;;;9.55;53.62
77165;BME280;66140;50.280;18.660;2023-04-08T11:57:06;99574.19;;;9.43;53.58
77165;BME280;66140;50.280;18.660;2023-04-08T11:59:36;99589.63;;;9.17;53.26
77165;BME280;66140;50.280;18.660;2023-04-08T12:02:02;99571.88;;;9.37;54.69
77165;BME280;66140;50.280;18.660;2023-04-08T12:04:28;99573.50;;;9.39;54.81
77165;BME280;66140;50.280;18.660;2023-04-08T12:06:56;99574.41;;;9.55;56.39
77165;BME280;66140;50.280;18.660;2023-04-08T12:09:21;99579.19;;;9.49;56.23
77165;BME280;66140;50.280;18.660;2023-04-08T12:11:47;99577.22;;;9.35;56.19
77165;BME280;66140;50.280;18.660;2023-04-08T12:14:13;99572.94;;;9.15;57.28
77165;BME280;66140;50.280;18.660;2023-04-08T12:16:38;99584.25;;;9.02;57.87
77165;BME280;66140;50.280;18.660;2023-04-08T12:19:08;99578.84;;;9.03;58.38
77165;BME280;66140;50.280;18.660;2023-04-08T12:21:33;99585.50;;;9.29;57.64
77165;BME280;66140;50.280;18.660;2023-04-08T12:24:02;99584.50;;;9.32;56.95
77165;BME280;66140;50.280;18.660;2023-04-08T12:26:27;99584.63;;;9.29;57.54
77165;BME280;66140;50.280;18.660;2023-04-08T12:28:52;99581.75;;;9.16;56.85
77165;BME280;66140;50.280;18.660;2023-04-08T12:31:25;99584.03;;;9.06;56.48
77165;BME280;66140;50.280;18.660;2023-04-08T12:33:52;99581.34;;;8.89;57.19
77165;BME280;66140;50.280;18.660;2023-04-08T12:36:18;99593.88;;;8.85;57.25
77165;BME280;66140;50.280;18.660;2023-04-08T12:38:43;99593.31;;;8.79;56.59
77165;BME280;66140;50.280;18.660;2023-04-08T12:41:08;99592.50;;;8.77;57.31
77165;BME280;66140;50.280;18.660;2023-04-08T12:43:34;99592.25;;;8.83;57.66
77165;BME280;66140;50.280;18.660;2023-04-08T12:46:00;99590.97;;;8.90;57.78
77165;BME280;66140;50.280;18.660;2023-04-08T12:48:26;99587.56;;;8.88;57.52
77165;BME280;66140;50.280;18.660;2023-04-08T12:50:52;99594.88;;;8.83;58.01
77165;BME280;66140;50.280;18.660;2023-04-08T12:53:17;99586.00;;;8.84;58.98
77165;BME280;66140;50.280;18.660;2023-04-08T12:55:43;99587.50;;;8.90;59.08
77165;BME280;66140;50.280;18.660;2023-04-08T12:58:08;99595.03;;;8.80;60.39
77165;BME280;66140;50.280;18.660;2023-04-08T13:00:34;99591.44;;;8.64;62.15
77165;BME280;66140;50.280;18.660;2023-04-08T13:03:02;99594.72;;;8.50;62.89
77165;BME280;66140;50.280;18.660;2023-04-08T13:05:28;99603.66;;;8.48;63.03
77165;BME280;66140;50.280;18.660;2023-04-08T13:07:53;99589.63;;;8.45;63.57
77165;BME280;66140;50.280;18.660;2023-04-08T13:10:18;99588.88;;;8.43;64.04
77165;BME280;66140;50.280;18.660;2023-04-08T13:12:44;99596.16;;;8.38;63.37
77165;BME280;66140;50.280;18.660;2023-04-08T13:15:10;99586.97;;;8.27;63.98
77165;BME280;66140;50.280;18.660;2023-04-08T13:17:35;99600.03;;;8.31;64.93
77165;BME280;66140;50.280;18.660;2023-04-08T13:20:00;99606.88;;;8.35;64.09
77165;BME280;66140;50.280;18.660;2023-04-08T13:22:26;99586.50;;;8.37;64.65
77165;BME280;66140;50.280;18.660;2023-04-08T13:24:52;99599.56;;;8.40;64.72
77165;BME280;66140;50.280;18.660;2023-04-08T13:27:17;99597.09;;;8.37;65.93
77165;BME280;66140;50.280;18.660;2023-04-08T13:29:42;99595.81;;;8.26;66.11
77165;BME280;66140;50.280;18.660;2023-04-08T13:32:08;99591.47;;;8.25;67.10
77165;BME280;66140;50.280;18.660;2023-04-08T13:34:33;99589.75;;;8.24;66.55
77165;BME280;66140;50.280;18.660;2023-04-08T13:36:58;99589.03;;;8.20;66.98
77165;BME280;66140;50.280;18.660;2023-04-08T13:39:24;99601.59;;;8.15;67.30
77165;BME280;66140;50.280;18.660;2023-04-08T13:41:49;99599.69;;;8.00;67.53
77165;BME280;66140;50.280;18.660;2023-04-08T13:44:14;99597.38;;;7.92;68.12
77165;BME280;66140;50.280;18.660;2023-04-08T13:46:41;99593.72;;;7.95;68.16
77165;BME280;66140;50.280;18.660;2023-04-08T13:49:06;99600.44;;;8.02;69.46
77165;BME280;66140;50.280;18.660;2023-04-08T13:51:33;99606.31;;;8.09;68.93
77165;BME280;66140;50.280;18.660;2023-04-08T13:53:59;99605.47;;;8.08;68.79
77165;BME280;66140;50.280;18.660;2023-04-08T13:56:25;99603.63;;;8.10;69.40
77165;BME280;66140;50.280;18.660;2023-04-08T13:58:50;99600.03;;;8.11;69.84
77165;BME280;66140;50.280;18.660;2023-04-08T14:01:16;99595.97;;;8.04;69.65
77165;BME280;66140;50.280;18.660;2023-04-08T14:03:41;99603.53;;;7.93;70.38
77165;BME280;66140;50.280;18.660;2023-04-08T14:06:07;99601.00;;;7.90;69.88
77165;BME280;66140;50.280;18.660;2023-04-08T14:08:39;99601.00;;;7.90;70.28
77165;BME280;66140;50.280;18.660;2023-04-08T14:11:07;99601.94;;;7.89;71.09
77165;BME280;66140;50.280;18.660;2023-04-08T14:13:33;99602.72;;;7.91;71.63
77165;BME280;66140;50.280;18.660;2023-04-08T14:15:58;99605.31;;;7.92;71.92
77165;BME280;66140;50.280;18.660;2023-04-08T14:18:26;99602.63;;;7.74;72.83
77165;BME280;66140;50.280;18.660;2023-04-08T14:20:52;99593.31;;;7.65;73.86
77165;BME280;66140;50.280;18.660;2023-04-08T14:23:17;99599.53;;;7.64;73.55
77165;BME280;66140;50.280;18.660;2023-04-08T14:25:42;99592.84;;;7.55;73.54
77165;BME280;66140;50.280;18.660;2023-04-08T14:28:08;99598.06;;;7.57;73.78
77165;BME280;66140;50.280;18.660;2023-04-08T14:30:34;99604.97;;;7.61;73.67
77165;BME280;66140;50.280;18.660;2023-04-08T14:33:00;99596.94;;;7.62;73.00
77165;BME280;66140;50.280;18.660;2023-04-08T14:35:25;99605.81;;;7.61;73.82
77165;BME280;66140;50.280;18.660;2023-04-08T14:37:51;99616.81;;;7.51;73.85
77165;BME280;66140;50.280;18.660;2023-04-08T14:40:16;99611.00;;;7.43;74.40
77165;BME280;66140;50.280;18.660;2023-04-08T14:42:42;99614.13;;;7.32;74.98
77165;BME280;66140;50.280;18.660;2023-04-08T14:45:09;99611.22;;;7.38;75.50
77165;BME280;66140;50.280;18.660;2023-04-08T14:47:35;99611.34;;;7.35;74.76
77165;BME280;66140;50.280;18.660;2023-04-08T14:50:00;99607.84;;;7.35;75.05
77165;BME280;66140;50.280;18.660;2023-04-08T14:52:26;99618.88;;;7.44;74.90
77165;BME280;66140;50.280;18.660;2023-04-08T14:54:51;99612.41;;;7.51;74.45
77165;BME280;66140;50.280;18.660;2023-04-08T14:57:20;99602.31;;;7.61;74.73
77165;BME280;66140;50.280;18.660;2023-04-08T14:59:45;99612.78;;;7.62;74.40
77165;BME280;66140;50.280;18.660;2023-04-08T15:02:10;99608.31;;;7.64;74.18
77165;BME280;66140;50.280;18.660;2023-04-08T15:04:36;99612.78;;;7.62;74.27
77165;BME280;66140;50.280;18.660;2023-04-08T15:07:02;99608.38;;;7.63;73.41
77165;BME280;66140;50.280;18.660;2023-04-08T15:09:27;99611.09;;;7.61;74.72
77165;BME280;66140;50.280;18.660;2023-04-08T15:11:53;99619.09;;;7.60;73.84
77165;BME280;66140;50.280;18.660;2023-04-08T15:14:18;99607.44;;;7.64;74.13
77165;BME280;66140;50.280;18.660;2023-04-08T15:16:44;99605.41;;;7.71;74.17
77165;BME280;66140;50.280;18.660;2023-04-08T15:19:09;99606.13;;;7.74;74.15
77165;BME280;66140;50.280;18.660;2023-04-08T15:21:35;99601.56;;;7.78;73.84
77165;BME280;66140;50.280;18.660;2023-04-08T15:24:01;99609.38;;;7.81;74.53
77165;BME280;66140;50.280;18.660;2023-04-08T15:26:26;99611.69;;;7.68;74.01
77165;BME280;66140;50.280;18.660;2023-04-08T15:28:53;99612.88;;;7.61;74.24
77165;BME280;66140;50.280;18.660;2023-04-08T15:31:19;99621.66;;;7.61;74.35
77165;BME280;66140;50.280;18.660;2023-04-08T15:33:45;99626.19;;;7.58;75.04
77165;BME280;66140;50.280;18.660;2023-04-08T15:36:10;99628.78;;;7.59;74.70
77165;BME280;66140;50.280;18.660;2023-04-08T15:38:36;99617.47;;;7.56;75.33
77165;BME280;66140;50.280;18.660;2023-04-08T15:41:01;99625.41;;;7.56;75.46
77165;BME280;66140;50.280;18.660;2023-04-08T15:43:27;99625.50;;;7.54;75.44
77165;BME280;66140;50.280;18.660;2023-04-08T15:45:53;99618.22;;;7.59;75.23
77165;BME280;66140;50.280;18.660;2023-04-08T15:48:18;99622.59;;;7.60;75.69
77165;BME280;66140;50.280;18.660;2023-04-08T15:50:44;99616.50;;;7.58;75.26
77165;BME280;66140;50.280;18.660;2023-04-08T15:53:10;99631.41;;;7.59;75.75
77165;BME280;66140;50.280;18.660;2023-04-08T15:55:39;99623.22;;;7.65;75.15
77165;BME280;66140;50.280;18.660;2023-04-08T15:58:05;99627.66;;;7.65;75.79
77165;BME280;66140;50.280;18.660;2023-04-08T16:00:31;99623.22;;;7.65;75.58
77165;BME280;66140;50.280;18.660;2023-04-08T16:02:57;99626.78;;;7.64;75.25
77165;BME280;66140;50.280;18.660;2023-04-08T16:05:22;99627.66;;;7.65;75.99
77165;BME280;66140;50.280;18.660;2023-04-08T16:07:48;99634.59;;;7.68;75.19
77165;BME280;66140;50.280;18.660;2023-04-08T16:10:13;99632.22;;;7.61;75.14
77165;BME280;66140;50.280;18.660;2023-04-08T16:12:38;99631.41;;;7.59;76.06
77165;BME280;66140;50.280;18.660;2023-04-08T16:15:04;99622.59;;;7.60;75.46
77165;BME280;66140;50.280;18.660;2023-04-08T16:17:30;99635.78;;;7.60;75.59
77165;BME280;66140;50.280;18.660;2023-04-08T16:19:55;99633.91;;;7.62;76.07
77165;BME280;66140;50.280;18.660;2023-04-08T16:22:21;99636.50;;;7.64;75.42
77165;BME280;66140;50.280;18.660;2023-04-08T16:24:47;99628.63;;;7.62;75.45
77165;BME280;66140;50.280;18.660;2023-04-08T16:27:12;99640.06;;;7.63;76.22
77165;BME280;66140;50.280;18.660;2023-04-08T16:29:38;99628.63;;;7.62;76.50
77165;BME280;66140;50.280;18.660;2023-04-08T16:32:03;99635.63;;;7.63;76.68
77165;BME280;66140;50.280;18.660;2023-04-08T16:34:29;99629.44;;;7.64;75.84
77165;BME280;66140;50.280;18.660;2023-04-08T16:36:55;99639.06;;;7.65;75.86
77165;BME280;66140;50.280;18.660;2023-04-08T16:39:20;99633.78;;;7.65;76.70
77165;BME280;66140;50.280;18.660;2023-04-08T16:41:45;99639.06;;;7.65;76.32
77165;BME280;66140;50.280;18.660;2023-04-08T16:44:11;99635.53;;;7.67;76.05
77165;BME280;66140;50.280;18.660;2023-04-08T16:46:38;99640.91;;;7.63;75.80
77165;BME280;66140;50.280;18.660;2023-04-08T16:49:03;99639.19;;;7.62;76.65
77165;BME280;66140;50.280;18.660;2023-04-08T16:51:28;99631.38;;;7.61;76.63
77165;BME280;66140;50.280;18.660;2023-04-08T16:53:54;99642.78;;;7.61;76.06
77165;BME280;66140;50.280;18.660;2023-04-08T16:56:19;99647.13;;;7.62;76.56
77165;BME280;66140;50.280;18.660;2023-04-08T16:58:45;99642.78;;;7.61;76.41
77165;BME280;66140;50.280;18.660;2023-04-08T17:01:11;99639.34;;;7.59;76.48
77165;BME280;66140;50.280;18.660;2023-04-08T17:03:40;99649.91;;;7.59;76.50
77165;BME280;66140;50.280;18.660;2023-04-08T17:06:06;99650.72;;;7.61;76.41
77165;BME280;66140;50.280;18.660;2023-04-08T17:08:33;99657.69;;;7.62;76.94
77165;BME280;66140;50.280;18.660;2023-04-08T17:11:06;99656.91;;;7.60;77.18
77165;BME280;66140;50.280;18.660;2023-04-08T17:13:32;99654.44;;;7.56;76.81
77165;BME280;66140;50.280;18.660;2023-04-08T17:15:57;99663.97;;;7.60;77.19
77165;BME280;66140;50.280;18.660;2023-04-08T17:18:23;99658.75;;;7.58;76.82
77165;BME280;66140;50.280;18.660;2023-04-08T17:20:48;99669.19;;;7.61;77.20
77165;BME280;66140;50.280;18.660;2023-04-08T17:23:16;99676.16;;;7.62;77.01
77165;BME280;66140;50.280;18.660;2023-04-08T17:25:42;99674.72;;;7.55;77.01
77165;BME280;66140;50.280;18.660;2023-04-08T17:28:07;99667.84;;;7.51;76.98
77165;BME280;66140;50.280;18.660;2023-04-08T17:30:32;99675.72;;;7.53;77.38
77165;BME280;66140;50.280;18.660;2023-04-08T17:32:58;99679.00;;;7.58;76.71
77165;BME280;66140;50.280;18.660;2023-04-08T17:35:23;99685.09;;;7.60;76.18
77165;BME280;66140;50.280;18.660;2023-04-08T17:37:49;99678.31;;;7.54;76.75
77165;BME280;66140;50.280;18.660;2023-04-08T17:40:15;99675.56;;;7.56;76.78
77165;BME280;66140;50.280;18.660;2023-04-08T17:42:40;99688.59;;;7.60;75.78
77165;BME280;66140;50.280;18.660;2023-04-08T17:45:06;99685.97;;;7.60;76.05
77165;BME280;66140;50.280;18.660;2023-04-08T17:47:32;99685.34;;;7.54;76.79
77165;BME280;66140;50.280;18.660;2023-04-08T17:49:57;99688.16;;;7.49;76.79
77165;BME280;66140;50.280;18.660;2023-04-08T17:52:22;99683.03;;;7.46;77.20
77165;BME280;66140;50.280;18.660;2023-04-08T17:54:48;99694.31;;;7.50;76.80
77165;BME280;66140;50.280;18.660;2023-04-08T17:57:13;99688.31;;;7.46;76.88
77165;BME280;66140;50.280;18.660;2023-04-08T17:59:39;99692.06;;;7.41;77.10
77165;BME280;66140;50.280;18.660;2023-04-08T18:02:04;99699.06;;;7.42;77.50
77165;BME280;66140;50.280;18.660;2023-04-08T18:04:30;99690.28;;;7.41;77.73
77165;BME280;66140;50.280;18.660;2023-04-08T18:06:56;99697.41;;;7.39;77.18
77165;BME280;66140;50.280;18.660;2023-04-08T18:09:21;99687.91;;;7.35;77.19
77165;BME280;66140;50.280;18.660;2023-04-08T18:11:46;99700.16;;;7.36;77.83